createdAt,value
2023-01-30T00:00:08.251Z,95895.44
2023-01-30T00:02:53.843Z,95891.09
2023-01-30T00:05:39.490Z,95889.47
2023-01-30T00:08:25.334Z,95888.34
2023-01-30T00:11:13.030Z,95882.13
2023-01-30T00:14:01.529Z,95879.13
2023-01-30T00:16:47.563Z,95881.81
2023-01-30T00:19:33.386Z,95875.44
2023-01-30T00:22:19.235Z,95883.50
2023-01-30T00:25:05.616Z,95886.72
2023-01-30T00:27:51.667Z,95872.34
2023-01-30T00:30:37.492Z,95876.63
2023-01-30T00:33:25.484Z,95871.88
2023-01-30T00:36:11.662Z,95865.97
2023-01-30T00:38:59.004Z,95872.19
2023-01-30T00:42:08.875Z,95873.00
2023-01-30T00:45:13.498Z,95865.56
2023-01-30T00:48:00.366Z,95872.75
2023-01-30T00:50:46.623Z,95863.97
2023-01-30T00:53:32.694Z,95866.63
2023-01-30T00:56:19.389Z,95855.41
2023-01-30T00:59:08.389Z,95857.50
2023-01-30T01:01:54.711Z,95853.78
2023-01-30T01:04:43.747Z,95862.81
2023-01-30T01:07:31.552Z,95848.13
2023-01-30T01:10:17.428Z,95850.53
2023-01-30T01:13:04.006Z,95855.53
2023-01-30T01:15:50.701Z,95853.16
2023-01-30T01:18:38.621Z,95850.72
2023-01-30T01:21:25.952Z,95841.84
2023-01-30T01:24:13.717Z,95847.41
2023-01-30T01:26:59.815Z,95837.50
2023-01-30T01:29:48.363Z,95832.66
2023-01-30T01:32:35.108Z,95827.97
2023-01-30T01:35:23.447Z,95834.09
2023-01-30T01:38:09.450Z,95823.59
2023-01-30T01:41:06.442Z,95827.63
2023-01-30T01:44:02.521Z,95821.50
2023-01-30T01:46:57.931Z,95815.38
2023-01-30T01:49:44.533Z,95823.44
2023-01-30T01:52:30.151Z,95815.47
2023-01-30T01:55:17.758Z,95806.66
2023-01-30T01:58:08.902Z,95809.09
2023-01-30T02:01:00.944Z,95805.91
2023-01-30T02:03:51.261Z,95802.19
2023-01-30T02:06:39.496Z,95800.09
2023-01-30T02:09:25.573Z,95796.97
2023-01-30T02:12:12.262Z,95805.53
2023-01-30T02:15:01.629Z,95809.72
2023-01-30T02:17:47.700Z,95809.22
2023-01-30T02:21:06.701Z,95801.47
2023-01-30T02:24:01.641Z,95793.25
2023-01-30T02:27:00.023Z,95786.31
2023-01-30T02:29:48.766Z,95793.25
2023-01-30T02:32:50.406Z,95780.97
2023-01-30T02:35:51.483Z,95774.03
2023-01-30T02:39:14.515Z,95778.78
2023-01-30T02:42:04.408Z,95775.03
2023-01-30T02:45:09.210Z,95772.34
2023-01-30T02:48:01.584Z,95761.13
2023-01-30T02:51:03.979Z,95769.69
2023-01-30T02:53:50.469Z,95761.13
2023-01-30T02:56:58.965Z,95766.94
2023-01-30T02:59:49.877Z,95761.84
2023-01-30T03:03:10.707Z,95760.47
2023-01-30T03:06:04.881Z,95770.31
2023-01-30T03:09:15.930Z,95761.00
2023-01-30T03:12:17.301Z,95750.81
2023-01-30T03:15:10.472Z,95763.91
2023-01-30T03:17:57.488Z,95761.47
2023-01-30T03:20:44.823Z,95747.03
2023-01-30T03:23:31.044Z,95757.44
2023-01-30T03:26:20.899Z,95749.19
2023-01-30T03:29:06.902Z,95751.63
2023-01-30T03:31:53.195Z,95745.81
2023-01-30T03:34:39.426Z,95745.00
2023-01-30T03:37:27.508Z,95735.47
2023-01-30T03:40:14.949Z,95742.97
2023-01-30T03:43:01.216Z,95734.97
2023-01-30T03:45:49.043Z,95731.25
2023-01-30T03:48:35.349Z,95728.03
2023-01-30T03:51:21.399Z,95729.16
2023-01-30T03:54:07.504Z,95727.56
2023-01-30T03:56:53.445Z,95726.75
2023-01-30T03:59:40.156Z,95724.88
2023-01-30T04:02:28.507Z,95726.75
2023-01-30T04:05:18.469Z,95721.41
2023-01-30T04:08:10.851Z,95719.47
2023-01-30T04:10:56.986Z,95714.16
2023-01-30T04:13:43.247Z,95714.47
2023-01-30T04:16:29.760Z,95721.91
2023-01-30T04:19:34.632Z,95716.81
2023-01-30T04:22:20.566Z,95715.19
2023-01-30T04:25:07.197Z,95708.78
2023-01-30T04:27:53.386Z,95710.38
2023-01-30T04:30:46.455Z,95720.53
2023-01-30T04:33:52.539Z,95710.63
2023-01-30T04:36:38.688Z,95718.91
2023-01-30T04:39:25.119Z,95716.25
2023-01-30T04:42:11.836Z,95716.75
2023-01-30T04:45:07.613Z,95712.72
2023-01-30T04:47:56.148Z,95704.66
2023-01-30T04:50:43.645Z,95703.53
2023-01-30T04:53:29.531Z,95701.13
2023-01-30T04:56:15.993Z,95691.75
2023-01-30T04:59:02.626Z,95695.19
2023-01-30T05:01:55.248Z,95698.88
2023-01-30T05:04:41.654Z,95695.66
2023-01-30T05:07:27.783Z,95700.19
2023-01-30T05:10:13.798Z,95697.28
2023-01-30T05:13:05.928Z,95691.94
2023-01-30T05:15:51.642Z,95686.63
2023-01-30T05:18:37.541Z,95688.72
2023-01-30T05:21:28.093Z,95687.59
2023-01-30T05:24:14.205Z,95682.19
2023-01-30T05:27:15.548Z,95677.84
2023-01-30T05:30:06.253Z,95642.78
2023-01-30T05:32:52.530Z,95694.22
2023-01-30T05:35:38.498Z,95697.13
2023-01-30T05:38:24.724Z,95697.88
2023-01-30T05:41:12.082Z,95700.19
2023-01-30T05:43:58.007Z,95702.94
2023-01-30T05:46:43.928Z,95696.47
2023-01-30T05:49:29.772Z,95703.91
2023-01-30T05:52:15.489Z,95702.78
2023-01-30T05:55:01.148Z,95712.28
2023-01-30T05:57:46.923Z,95716.47
2023-01-30T06:00:32.513Z,95713.25
2023-01-30T06:03:18.460Z,95715.00
2023-01-30T06:06:06.249Z,95720.06
2023-01-30T06:08:56.270Z,95710.00
2023-01-30T06:11:41.896Z,95706.06
2023-01-30T06:14:27.726Z,95697.28
2023-01-30T06:17:13.827Z,95702.59
2023-01-30T06:19:59.462Z,95703.19
2023-01-30T06:22:48.574Z,95701.56
2023-01-30T06:25:34.417Z,95705.59
2023-01-30T06:28:20.797Z,95712.78
2023-01-30T06:31:07.861Z,95711.16
2023-01-30T06:33:54.085Z,95712.44
2023-01-30T06:36:39.774Z,95714.34
2023-01-30T06:39:25.392Z,95712.50
2023-01-30T06:42:11.118Z,95722.91
2023-01-30T06:44:57.997Z,95720.81
2023-01-30T06:47:48.284Z,95718.72
2023-01-30T06:50:35.465Z,95711.91
2023-01-30T06:53:22.345Z,95710.81
2023-01-30T06:56:09.254Z,95713.00
2023-01-30T06:58:55.046Z,95719.22
2023-01-30T07:01:41.868Z,95714.16
2023-01-30T07:04:27.471Z,95718.66
2023-01-30T07:07:15.274Z,95723.66
2023-01-30T07:10:08.323Z,95725.25
2023-01-30T07:12:55.038Z,95724.22
2023-01-30T07:15:40.968Z,95726.31
2023-01-30T07:18:26.699Z,95724.69
2023-01-30T07:21:12.556Z,95726.31
2023-01-30T07:23:59.485Z,95731.63
2023-01-30T07:26:48.253Z,95724.69
2023-01-30T07:29:38.294Z,95725.75
2023-01-30T07:32:24.241Z,95721.47
2023-01-30T07:35:10.121Z,95727.94
2023-01-30T07:37:56.121Z,95723.19
2023-01-30T07:40:41.681Z,95723.25
2023-01-30T07:43:27.657Z,95726.47
2023-01-30T07:46:13.433Z,95727.28
2023-01-30T07:48:59.916Z,95715.25
2023-01-30T07:51:46.858Z,95720.69
2023-01-30T07:54:32.824Z,95719.06
2023-01-30T07:57:18.599Z,95720.19
2023-01-30T08:00:05.311Z,95716.50
2023-01-30T08:02:55.715Z,95705.84
2023-01-30T08:05:41.667Z,95707.38
2023-01-30T08:08:27.440Z,95715.94
2023-01-30T08:11:13.266Z,95710.03
2023-01-30T08:14:00.105Z,95708.41
2023-01-30T08:16:46.159Z,95704.25
2023-01-30T08:19:32.224Z,95700.53
2023-01-30T08:22:18.439Z,95701.06
2023-01-30T08:25:04.840Z,95699.06
2023-01-30T08:27:50.818Z,95701.25
2023-01-30T08:30:37.038Z,95690.84
2023-01-30T08:33:24.210Z,95699.56
2023-01-30T08:36:10.508Z,95688.00
2023-01-30T08:38:56.178Z,95701.47
2023-01-30T08:41:44.633Z,95700.50
2023-01-30T08:44:30.644Z,95700.06
2023-01-30T08:47:16.269Z,95698.50
2023-01-30T08:50:02.509Z,95700.22
2023-01-30T08:52:48.103Z,95696.81
2023-01-30T08:55:34.083Z,95691.22
2023-01-30T08:58:21.024Z,95696.88
2023-01-30T09:01:07.495Z,95693.09
2023-01-30T09:03:53.435Z,95699.78
2023-01-30T09:06:40.239Z,95692.22
2023-01-30T09:09:26.749Z,95695.44
2023-01-30T09:12:12.800Z,95687.38
2023-01-30T09:15:00.504Z,95691.41
2023-01-30T09:17:46.221Z,95690.13
2023-01-30T09:20:32.314Z,95683.66
2023-01-30T09:23:18.489Z,95692.03
2023-01-30T09:26:05.159Z,95687.03
2023-01-30T09:28:52.174Z,95690.81
2023-01-30T09:31:38.490Z,95683.94
2023-01-30T09:34:28.944Z,95673.84
2023-01-30T09:37:15.015Z,95678.13
2023-01-30T09:40:00.659Z,95673.91
2023-01-30T09:43:13.481Z,95676.56
2023-01-30T09:46:09.295Z,95671.28
2023-01-30T09:49:05.130Z,95676.63
2023-01-30T09:52:21.168Z,95667.56
2023-01-30T09:55:27.406Z,95648.34
2023-01-30T09:58:24.206Z,95655.13
2023-01-30T10:01:17.222Z,95655.41
2023-01-30T10:04:25.200Z,95649.03
2023-01-30T10:07:11.174Z,95646.19
2023-01-30T10:10:38.672Z,95643.25
2023-01-30T10:13:32.133Z,95631.53
2023-01-30T10:17:01.428Z,95625.78
2023-01-30T10:20:31.728Z,95617.31
2023-01-30T10:23:41.446Z,95602.13
2023-01-30T10:26:28.751Z,95610.56
2023-01-30T10:29:17.711Z,95612.47
2023-01-30T10:32:14.999Z,95608.53
2023-01-30T10:35:19.751Z,95610.97
2023-01-30T10:38:21.769Z,95604.94
2023-01-30T10:41:15.097Z,95586.03
2023-01-30T10:44:09.162Z,95586.41
2023-01-30T10:47:41.733Z,95576.88
2023-01-30T10:50:44.164Z,95568.16
2023-01-30T10:53:44.842Z,95559.38
2023-01-30T10:56:42.934Z,95548.22
2023-01-30T10:59:41.517Z,95537.03
2023-01-30T11:02:51.689Z,95523.69
2023-01-30T11:05:47.304Z,95518.91
2023-01-30T11:08:35.177Z,95503.44
2023-01-30T11:11:49.237Z,95498.91
2023-01-30T11:14:58.849Z,95502.91
2023-01-30T11:17:45.931Z,95499.19
2023-01-30T11:20:31.718Z,95487.97
2023-01-30T11:23:47.343Z,95486.38
2023-01-30T11:26:46.790Z,95472.47
2023-01-30T11:29:35.174Z,95471.41
2023-01-30T11:32:28.414Z,95462.84
2023-01-30T11:35:14.235Z,95460.19
2023-01-30T11:38:13.023Z,95462.06
2023-01-30T11:41:18.812Z,95455.09
2023-01-30T11:44:05.961Z,95456.41
2023-01-30T11:46:52.423Z,95456.41
2023-01-30T11:51:31.892Z,95440.13
2023-01-30T11:52:53.835Z,95438.78
2023-01-30T11:55:41.747Z,95438.78
2023-01-30T11:58:34.318Z,95429.16
2023-01-30T12:01:20.145Z,95440.41
2023-01-30T12:04:08.708Z,95426.47
2023-01-30T12:07:11.201Z,95429.13
2023-01-30T12:09:58.216Z,95420.81
2023-01-30T12:12:48.144Z,95417.84
2023-01-30T12:15:35.043Z,95403.91
2023-01-30T12:18:28.253Z,95401.75
2023-01-30T12:21:45.057Z,95398.00
2023-01-30T12:24:45.096Z,95399.63
2023-01-30T12:27:49.002Z,95383.56
2023-01-30T12:30:45.171Z,95381.94
2023-01-30T12:33:34.962Z,95368.56
2023-01-30T12:36:46.391Z,95366.88
2023-01-30T12:40:18.009Z,95365.22
2023-01-30T12:43:29.919Z,95356.59
2023-01-30T12:46:47.071Z,95360.59
2023-01-30T12:49:47.304Z,95346.13
2023-01-30T12:52:51.427Z,95341.75
2023-01-30T12:55:52.385Z,95336.13
2023-01-30T12:58:46.752Z,95336.63
2023-01-30T13:01:44.496Z,95333.66
2023-01-30T13:04:56.887Z,95329.25
2023-01-30T13:08:33.652Z,95337.38
2023-01-30T13:11:29.257Z,95328.69
2023-01-30T13:14:18.165Z,95330.75
2023-01-30T13:17:25.713Z,95327.41
2023-01-30T13:20:38.067Z,95322.91
2023-01-30T13:23:39.211Z,95311.91
2023-01-30T13:26:31.339Z,95314.59
2023-01-30T13:29:36.393Z,95303.09
2023-01-30T13:32:36.124Z,95303.88
2023-01-30T13:35:26.972Z,95300.25
2023-01-30T13:38:18.637Z,95295.59
2023-01-30T13:41:05.149Z,95290.13
2023-01-30T13:43:53.183Z,95290.56
2023-01-30T13:46:39.487Z,95288.41
2023-01-30T13:50:03.947Z,95294.38
2023-01-30T13:53:01.786Z,95291.19
2023-01-30T13:56:02.683Z,95290.34
2023-01-30T13:59:10.159Z,95289.53
2023-01-30T14:01:59.426Z,95285.50
2023-01-30T14:04:56.393Z,95292.25
2023-01-30T14:07:42.887Z,95275.22
2023-01-30T14:10:33.771Z,95291.38
2023-01-30T14:13:19.873Z,95284.44
2023-01-30T14:16:06.779Z,95289.09
2023-01-30T14:18:52.963Z,95279.59
2023-01-30T14:21:45.745Z,95269.97
2023-01-30T14:24:31.960Z,95278.38
2023-01-30T14:27:31.981Z,95263.44
2023-01-30T14:30:56.580Z,95269.63
2023-01-30T14:33:50.447Z,95275.84
2023-01-30T14:36:37.191Z,95273.03
2023-01-30T14:39:42.144Z,95281.16
2023-01-30T14:42:31.110Z,95266.34
2023-01-30T14:45:20.385Z,95269.44
2023-01-30T14:48:40.411Z,95269.53
2023-01-30T14:51:44.561Z,95262.59
2023-01-30T14:54:41.082Z,95262.88
2023-01-30T14:57:32.714Z,95257.75
2023-01-30T15:00:21.189Z,95253.97
2023-01-30T15:03:15.258Z,95255.56
2023-01-30T15:06:01.017Z,95249.31
2023-01-30T15:08:47.509Z,95245.75
2023-01-30T15:11:34.939Z,95253.69
2023-01-30T15:14:54.092Z,95248.53
2023-01-30T15:18:08.334Z,95246.50
2023-01-30T15:21:37.699Z,95248.44
2023-01-30T15:25:00.660Z,95246.34
2023-01-30T15:28:12.295Z,95249.09
2023-01-30T15:31:13.561Z,95249.66
2023-01-30T15:33:59.312Z,95258.28
2023-01-30T15:36:46.241Z,95251.91
2023-01-30T15:39:32.218Z,95261.06
2023-01-30T15:42:18.095Z,95265.91
2023-01-30T15:45:17.184Z,95264.66
2023-01-30T15:48:42.009Z,95268.94
2023-01-30T15:51:29.683Z,95265.50
2023-01-30T15:54:18.832Z,95255.91
2023-01-30T15:57:05.101Z,95262.88
2023-01-30T15:59:53.394Z,95258.59
2023-01-30T16:02:39.223Z,95247.41
2023-01-30T16:05:26.645Z,95257.56
2023-01-30T16:08:24.145Z,95240.75
2023-01-30T16:11:10.524Z,95250.09
2023-01-30T16:13:58.338Z,95254.38
2023-01-30T16:16:47.264Z,95251.97
2023-01-30T16:19:35.069Z,95255.44
2023-01-30T16:22:21.728Z,95253.03
2023-01-30T16:25:17.678Z,95259.72
2023-01-30T16:28:03.762Z,95268.25
2023-01-30T16:30:59.669Z,95268.53
2023-01-30T16:33:52.088Z,95275.75
2023-01-30T16:36:43.459Z,95265.09
2023-01-30T16:39:33.778Z,95279.50
2023-01-30T16:42:25.732Z,95270.94
2023-01-30T16:45:11.704Z,95286.47
2023-01-30T16:48:16.406Z,95283.78
2023-01-30T16:51:02.143Z,95278.97
2023-01-30T16:53:58.937Z,95279.22
2023-01-30T16:56:51.214Z,95278.94
2023-01-30T16:59:37.993Z,95275.75
2023-01-30T17:02:30.907Z,95274.13
2023-01-30T17:05:27.135Z,95281.63
2023-01-30T17:08:31.355Z,95276.00
2023-01-30T17:11:29.116Z,95283.19
2023-01-30T17:14:14.771Z,95276.00
2023-01-30T17:17:08.153Z,95270.66
2023-01-30T17:19:55.351Z,95270.88
2023-01-30T17:22:43.774Z,95279.94
2023-01-30T17:25:35.813Z,95271.44
2023-01-30T17:28:27.967Z,95266.59
2023-01-30T17:31:15.158Z,95259.94
2023-01-30T17:34:00.965Z,95263.91
2023-01-30T17:36:47.071Z,95267.63
2023-01-30T17:39:34.526Z,95257.47
2023-01-30T17:42:22.458Z,95271.31
2023-01-30T17:45:11.977Z,95272.91
2023-01-30T17:47:57.771Z,95270.78
2023-01-30T17:50:43.555Z,95263.28
2023-01-30T17:53:29.471Z,95241.38
2023-01-30T17:56:18.214Z,95250.44
2023-01-30T17:59:16.114Z,95257.91
2023-01-30T18:02:02.710Z,95255.75
2023-01-30T18:04:49.514Z,95247.75
2023-01-30T18:07:35.346Z,95251.44
2023-01-30T18:10:22.241Z,95242.34
2023-01-30T18:13:08.334Z,95243.34
2023-01-30T18:15:57.515Z,95242.25
2023-01-30T18:18:43.644Z,95244.34
2023-01-30T18:21:30.160Z,95240.63
2023-01-30T18:24:19.794Z,95232.91
2023-01-30T18:27:05.617Z,95233.75
2023-01-30T18:29:57.805Z,95234.31
2023-01-30T18:32:52.611Z,95225.25
2023-01-30T18:35:39.787Z,95221.81
2023-01-30T18:38:25.469Z,95238.38
2023-01-30T18:41:18.742Z,95238.06
2023-01-30T18:44:06.094Z,95235.19
2023-01-30T18:46:52.131Z,95237.31
2023-01-30T18:49:37.633Z,95234.94
2023-01-30T18:52:23.665Z,95231.22
2023-01-30T18:55:09.927Z,95233.88
2023-01-30T18:57:55.953Z,95220.00
2023-01-30T19:00:41.948Z,95226.41
2023-01-30T19:03:32.829Z,95217.88
2023-01-30T19:06:19.293Z,95219.47
2023-01-30T19:09:07.525Z,95217.34
2023-01-30T19:12:14.992Z,95223.19
2023-01-30T19:15:01.537Z,95226.91
2023-01-30T19:17:47.677Z,95229.81
2023-01-30T19:20:33.475Z,95235.69
2023-01-30T19:23:19.469Z,95236.22
2023-01-30T19:26:05.237Z,95242.03
2023-01-30T19:28:52.334Z,95242.81
2023-01-30T19:31:38.527Z,95227.31
2023-01-30T19:34:26.680Z,95225.41
2023-01-30T19:37:12.690Z,95217.63
2023-01-30T19:39:58.625Z,95215.47
2023-01-30T19:42:44.806Z,95205.88
2023-01-30T19:45:32.765Z,95214.97
2023-01-30T19:48:18.515Z,95209.13
2023-01-30T19:51:23.572Z,95209.63
2023-01-30T19:54:10.889Z,95213.91
2023-01-30T19:56:59.652Z,95206.41
2023-01-30T19:59:46.011Z,95211.25
2023-01-30T20:02:32.948Z,95206.41
2023-01-30T20:05:20.497Z,95208.03
2023-01-30T20:08:07.741Z,95202.69
2023-01-30T20:11:22.001Z,95196.88
2023-01-30T20:14:08.962Z,95188.88
2023-01-30T20:16:54.850Z,95200.63
2023-01-30T20:19:40.898Z,95197.72
2023-01-30T20:22:26.644Z,95189.44
2023-01-30T20:25:12.407Z,95205.47
2023-01-30T20:27:58.521Z,95201.16
2023-01-30T20:30:44.486Z,95217.47
2023-01-30T20:33:31.186Z,95212.94
2023-01-30T20:36:19.034Z,95216.41
2023-01-30T20:39:08.559Z,95209.47
2023-01-30T20:41:54.761Z,95188.66
2023-01-30T20:44:40.378Z,95198.00
2023-01-30T20:47:26.367Z,95212.38
2023-01-30T20:50:13.809Z,95205.47
2023-01-30T20:53:00.088Z,95207.31
2023-01-30T20:55:45.856Z,95192.91
2023-01-30T20:58:31.951Z,95205.47
2023-01-30T21:01:22.710Z,95192.13
2023-01-30T21:04:11.044Z,95193.44
2023-01-30T21:06:56.866Z,95204.88
2023-01-30T21:09:42.679Z,95190.50
2023-01-30T21:12:30.052Z,95191.28
2023-01-30T21:15:15.993Z,95183.84
2023-01-30T21:18:02.331Z,95191.59
2023-01-30T21:20:49.780Z,95181.44
2023-01-30T21:23:36.933Z,95181.75
2023-01-30T21:26:24.468Z,95188.41
2023-01-30T21:29:11.043Z,95185.75
2023-01-30T21:31:58.887Z,95200.69
2023-01-30T21:34:44.541Z,95196.16
2023-01-30T21:37:49.350Z,95188.97
2023-01-30T21:40:54.081Z,95203.34
2023-01-30T21:43:40.192Z,95204.34
2023-01-30T21:46:25.935Z,95209.88
2023-01-30T21:49:12.310Z,95220.00
2023-01-30T21:51:58.517Z,95226.66
2023-01-30T21:54:44.572Z,95224.25
2023-01-30T21:57:30.829Z,95219.72
2023-01-30T22:00:17.068Z,95217.59
2023-01-30T22:03:05.344Z,95211.72
2023-01-30T22:05:51.282Z,95218.69
2023-01-30T22:08:37.863Z,95209.63
2023-01-30T22:11:24.248Z,95218.16
2023-01-30T22:14:15.102Z,95208.34
2023-01-30T22:17:01.377Z,95205.41
2023-01-30T22:19:47.515Z,95187.31
2023-01-30T22:22:33.543Z,95192.09
2023-01-30T22:25:19.830Z,95187.06
2023-01-30T22:28:05.724Z,95187.88
2023-01-30T22:30:54.488Z,95187.06
2023-01-30T22:33:46.371Z,95191.88
2023-01-30T22:36:33.648Z,95185.22
2023-01-30T22:39:19.365Z,95185.75
2023-01-30T22:42:05.186Z,95195.34
2023-01-30T22:44:51.297Z,95206.81
2023-01-30T22:47:37.166Z,95194.56
2023-01-30T22:50:23.141Z,95197.50
2023-01-30T22:53:08.711Z,95196.44
2023-01-30T22:55:54.419Z,95205.50
2023-01-30T22:58:40.664Z,95203.38
2023-01-30T23:01:29.564Z,95213.50
2023-01-30T23:04:18.022Z,95203.91
2023-01-30T23:07:03.861Z,95188.97
2023-01-30T23:09:49.696Z,95190.03
2023-01-30T23:12:53.783Z,95187.09
2023-01-30T23:15:42.962Z,95185.22
2023-01-30T23:18:47.292Z,95187.63
2023-01-30T23:21:59.955Z,95191.09
2023-01-30T23:24:45.876Z,95206.00
2023-01-30T23:27:31.717Z,95188.97
2023-01-30T23:30:17.699Z,95197.22
2023-01-30T23:33:04.546Z,95205.47
2023-01-30T23:35:50.097Z,95199.09
2023-01-30T23:38:36.501Z,95193.75
2023-01-30T23:41:27.625Z,95192.69
2023-01-30T23:44:13.309Z,95182.03
2023-01-30T23:46:58.978Z,95176.72
2023-01-30T23:49:44.664Z,95216.16
2023-01-30T23:52:31.651Z,95200.97
2023-01-30T23:55:17.758Z,95200.13
2023-01-30T23:58:04.778Z,95234.50
